createdAt,value
2019-01-24T08:54:27.577Z,15.00
2019-01-24T08:59:31.622Z,17.00
2019-01-24T09:04:35.738Z,16.75
2019-01-24T09:09:39.962Z,16.50
2019-01-24T09:14:44.079Z,20.00
2019-01-24T09:19:48.279Z,19.60
2019-01-24T09:24:52.638Z,22.60
2019-01-24T09:29:56.816Z,21.00
2019-01-24T09:35:01.037Z,22.00
2019-01-24T09:40:08.034Z,24.80
2019-01-24T09:45:18.168Z,27.00
2019-01-24T09:50:23.446Z,25.80
2019-01-24T09:55:27.853Z,25.25
2019-01-24T10:00:34.044Z,23.75
2019-01-24T10:05:38.469Z,23.80
2019-01-24T10:10:42.598Z,23.00
2019-01-24T10:15:46.732Z,22.20
2019-01-24T10:20:50.914Z,23.25
2019-01-24T10:25:55.011Z,22.00
2019-01-24T10:30:59.109Z,23.00
2019-01-24T10:36:03.400Z,23.00
2019-01-24T10:41:07.741Z,22.00
2019-01-24T10:46:12.090Z,21.00
2019-01-24T10:51:16.281Z,22.60
2019-01-24T10:56:20.420Z,22.00
2019-01-24T11:01:24.736Z,21.75
2019-01-24T11:06:29.001Z,21.75
2019-01-24T11:11:33.260Z,21.25
2019-01-24T11:16:37.564Z,21.20
2019-01-24T11:21:41.861Z,21.75
2019-01-24T11:26:46.149Z,21.20
2019-01-24T11:31:50.356Z,21.00
2019-01-24T11:36:57.183Z,21.60
2019-01-24T11:42:00.615Z,20.50
2019-01-24T11:47:04.948Z,21.75
2019-01-24T11:52:09.424Z,21.00
2019-01-24T11:57:13.826Z,20.50
2019-01-24T12:02:18.133Z,21.25
2019-01-24T12:07:22.446Z,21.25
2019-01-24T12:12:26.638Z,21.00
2019-01-24T12:17:30.963Z,20.80
2019-01-24T12:22:35.283Z,20.50
2019-01-24T12:27:39.571Z,21.00
2019-01-24T12:32:43.936Z,19.00
2019-01-24T12:37:48.431Z,19.20
2019-01-24T12:42:52.702Z,19.80
2019-01-24T12:47:56.834Z,19.00
2019-01-24T12:53:11.285Z,23.00
2019-01-24T12:58:15.561Z,21.25
2019-01-24T13:03:19.632Z,21.75
2019-01-24T13:08:23.829Z,20.40
2019-01-24T13:13:32.279Z,20.00
2019-01-24T13:18:36.534Z,20.60
2019-01-24T13:23:40.787Z,19.75
2019-01-24T13:28:44.979Z,19.75
2019-01-24T13:33:49.266Z,19.50
2019-01-24T13:38:53.450Z,17.40
2019-01-24T13:43:57.595Z,17.00
2019-01-24T13:49:01.720Z,16.60
2019-01-24T13:54:05.988Z,18.75
2019-01-24T13:59:10.394Z,17.50
2019-01-24T14:04:18.250Z,17.00
2019-01-24T14:09:22.760Z,16.00
2019-01-24T14:14:27.368Z,18.00
2019-01-24T14:19:31.533Z,16.00
2019-01-24T14:24:35.851Z,16.20
2019-01-24T14:29:40.216Z,15.25
2019-01-24T14:34:44.542Z,14.00
2019-01-24T14:39:49.138Z,17.75
2019-01-24T14:44:53.336Z,16.50
2019-01-24T14:49:58.026Z,14.20
2019-01-24T14:55:02.205Z,14.50
2019-01-24T15:00:19.907Z,15.60
2019-01-24T15:05:24.425Z,15.20
2019-01-24T15:10:29.000Z,15.50
2019-01-24T15:15:33.406Z,15.00
2019-01-24T15:20:38.020Z,13.80
2019-01-24T15:25:42.766Z,13.50
2019-01-24T15:30:47.834Z,13.25
2019-01-24T15:35:52.470Z,15.20
2019-01-24T15:40:57.440Z,14.00
2019-01-24T15:46:02.676Z,14.00
2019-01-24T15:51:07.364Z,15.75
2019-01-24T15:56:12.450Z,13.75
2019-01-24T16:01:17.613Z,11.00
2019-01-24T16:06:22.598Z,12.75
2019-01-24T16:11:27.702Z,12.50
2019-01-24T16:16:32.754Z,13.75
2019-01-24T16:21:37.833Z,13.60
2019-01-24T16:26:42.874Z,12.25
2019-01-24T16:31:49.140Z,14.20
2019-01-24T16:36:54.304Z,13.00
2019-01-24T16:42:00.855Z,12.60
2019-01-24T16:47:06.637Z,11.50
2019-01-24T16:52:12.114Z,12.00
2019-01-24T16:57:17.746Z,12.25
2019-01-24T17:02:22.548Z,12.00
2019-01-24T17:07:28.207Z,13.00
2019-01-24T17:12:33.499Z,11.60
2019-01-24T17:17:38.413Z,10.25
2019-01-24T17:22:43.592Z,12.75
2019-01-24T17:27:48.856Z,12.80
2019-01-24T17:32:54.796Z,11.75
2019-01-24T17:38:01.072Z,12.80
2019-01-24T17:43:07.070Z,11.60
2019-01-24T17:48:12.164Z,12.00
2019-01-24T17:53:20.023Z,10.40
2019-01-24T17:58:25.681Z,11.75
2019-01-24T18:03:30.912Z,12.25
2019-01-24T18:08:36.150Z,13.00
2019-01-24T18:13:42.356Z,10.75
2019-01-24T18:18:48.017Z,9.60
2019-01-24T18:23:53.513Z,11.25
2019-01-24T18:29:00.422Z,10.25
2019-01-24T18:34:06.352Z,11.25
2019-01-24T18:39:13.672Z,9.60
2019-01-24T18:44:18.963Z,10.40
2019-01-24T18:49:24.835Z,10.20
2019-01-24T18:54:30.624Z,9.25
2019-01-24T18:59:36.547Z,9.75
2019-01-24T19:04:43.366Z,10.60
2019-01-24T19:09:49.597Z,9.40
2019-01-24T19:14:55.516Z,9.50
2019-01-24T19:20:02.457Z,10.00
2019-01-24T19:25:09.512Z,9.80
2019-01-24T19:30:19.934Z,8.60
2019-01-24T19:35:26.316Z,10.80
2019-01-24T19:40:33.116Z,9.75
2019-01-24T19:45:39.883Z,9.60
2019-01-24T19:50:46.382Z,10.00
2019-01-24T19:55:52.855Z,8.50
2019-01-24T20:00:59.555Z,9.40
2019-01-24T20:06:05.836Z,10.25
2019-01-24T20:11:12.155Z,10.00
2019-01-24T20:16:18.312Z,8.80
2019-01-24T20:21:24.796Z,9.00
2019-01-24T20:26:30.864Z,9.75
2019-01-24T20:31:37.562Z,7.75
2019-01-24T20:36:43.516Z,9.25
2019-01-24T20:41:49.310Z,8.75
2019-01-24T20:46:56.066Z,9.50
2019-01-24T20:52:01.505Z,9.40
2019-01-24T20:57:06.687Z,8.20
2019-01-24T21:02:12.102Z,8.20
2019-01-24T21:07:17.030Z,7.50
2019-01-24T21:12:22.668Z,8.75
2019-01-24T21:17:28.202Z,8.00
2019-01-24T21:22:32.923Z,8.40
2019-01-24T21:27:37.387Z,8.60
2019-01-24T21:32:42.333Z,7.60
2019-01-24T21:37:47.102Z,7.75
2019-01-24T21:42:52.313Z,8.00
2019-01-24T21:47:56.867Z,8.80
2019-01-24T21:53:01.341Z,7.25
2019-01-24T21:58:07.464Z,9.50
2019-01-24T22:03:11.736Z,8.75
2019-01-24T22:08:16.051Z,8.00
2019-01-24T22:13:20.403Z,7.80
2019-01-24T22:18:24.626Z,7.00
2019-01-24T22:23:28.804Z,8.25
2019-01-24T22:28:33.023Z,7.75
2019-01-24T22:33:37.188Z,7.00
2019-01-24T22:38:41.248Z,8.60
2019-01-24T22:43:45.358Z,7.00
2019-01-24T22:48:49.551Z,6.00
2019-01-24T22:53:53.713Z,7.00
2019-01-24T22:58:57.866Z,8.00
2019-01-24T23:04:14.321Z,7.75
2019-01-24T23:09:18.397Z,8.20
2019-01-24T23:14:22.723Z,7.80
2019-01-24T23:19:26.881Z,7.75
2019-01-24T23:24:31.086Z,7.00
2019-01-24T23:29:35.353Z,6.40
2019-01-24T23:34:39.584Z,7.00
2019-01-24T23:39:43.806Z,8.25
2019-01-24T23:44:48.205Z,7.00
2019-01-24T23:49:52.348Z,7.20
2019-01-24T23:54:56.414Z,6.20
